createdAt,value
2024-02-16T00:04:23.176Z,8.6
2024-02-16T00:14:23.302Z,8.6
2024-02-16T00:24:23.341Z,8.6
2024-02-16T00:34:23.480Z,8.6
2024-02-16T00:44:23.327Z,8.5
2024-02-16T00:54:23.365Z,8.5
2024-02-16T01:04:23.307Z,8.5
2024-02-16T01:14:23.273Z,8.5
2024-02-16T01:24:23.196Z,8.5
2024-02-16T01:34:23.290Z,8.5
2024-02-16T01:44:23.229Z,8.6
2024-02-16T01:54:23.282Z,8.6
2024-02-16T02:04:23.453Z,8.6
2024-02-16T02:14:22.971Z,8.6
2024-02-16T02:24:23.210Z,8.6
2024-02-16T02:34:23.283Z,8.6
2024-02-16T02:44:23.145Z,8.6
2024-02-16T02:54:23.216Z,8.6
2024-02-16T03:04:23.168Z,8.7
2024-02-16T03:14:23.122Z,8.7
2024-02-16T03:24:23.134Z,8.7
2024-02-16T03:34:23.242Z,8.7
2024-02-16T03:44:23.074Z,8.7
2024-02-16T03:54:23.097Z,8.7
2024-02-16T04:04:23.098Z,8.7
2024-02-16T04:14:23.064Z,8.7
2024-02-16T04:24:23.073Z,8.7
2024-02-16T04:34:22.990Z,8.7
2024-02-16T04:44:23.021Z,8.7
2024-02-16T04:54:23.099Z,8.7
2024-02-16T05:04:23.134Z,8.7
2024-02-16T05:14:22.988Z,8.7
2024-02-16T05:24:22.992Z,8.7
2024-02-16T05:34:23.045Z,8.7
2024-02-16T05:44:22.758Z,8.7
2024-02-16T05:54:22.974Z,8.7
2024-02-16T06:04:22.950Z,8.7
2024-02-16T06:14:22.926Z,8.7
2024-02-16T06:24:22.902Z,8.7
2024-02-16T06:34:22.857Z,8.7
2024-02-16T06:44:24.766Z,8.7
2024-02-16T06:54:22.856Z,8.7
2024-02-16T07:04:22.886Z,8.7
2024-02-16T07:14:22.844Z,8.7
2024-02-16T07:24:22.888Z,8.7
2024-02-16T07:34:22.900Z,8.7
2024-02-16T07:44:22.846Z,8.7
2024-02-16T07:54:22.811Z,8.8
2024-02-16T08:04:22.801Z,8.8
2024-02-16T08:14:22.764Z,8.8
2024-02-16T08:24:22.837Z,8.8
2024-02-16T08:34:22.865Z,8.8
2024-02-16T08:44:22.744Z,8.8
2024-02-16T08:54:23.073Z,8.8
2024-02-16T09:04:22.753Z,8.9
2024-02-16T09:14:22.744Z,8.9
2024-02-16T09:24:22.781Z,8.9
2024-02-16T09:34:22.775Z,8.9
2024-02-16T09:44:22.694Z,9
2024-02-16T09:54:22.816Z,9
2024-02-16T10:04:22.658Z,9
2024-02-16T10:14:22.433Z,9
2024-02-16T10:24:22.678Z,9.1
2024-02-16T10:34:22.781Z,9.1
2024-02-16T10:44:22.570Z,9.2
2024-02-16T10:54:22.598Z,9.2
2024-02-16T11:04:22.792Z,9.2
2024-02-16T11:14:22.534Z,9.2
2024-02-16T11:24:22.377Z,9.2
2024-02-16T11:34:22.707Z,9.3
2024-02-16T11:44:22.530Z,9.3
2024-02-16T11:54:22.367Z,9.3
2024-02-16T12:04:22.621Z,9.3
2024-02-16T12:14:22.504Z,9.3
2024-02-16T12:24:22.501Z,9.3
2024-02-16T12:34:22.689Z,9.4
2024-02-16T12:44:22.501Z,9.4
2024-02-16T15:04:22.282Z,9.4
2024-02-16T15:24:22.303Z,9.4
2024-02-16T15:34:22.335Z,9.4
2024-02-16T15:54:22.271Z,9.4
2024-02-16T16:04:22.258Z,9.4
2024-02-16T16:14:22.211Z,9.4
2024-02-16T16:24:22.240Z,9.4
2024-02-16T16:34:21.793Z,9.4
2024-02-16T16:44:22.164Z,9.4
2024-02-16T16:54:22.159Z,9.4
2024-02-16T17:04:22.109Z,9.4
2024-02-16T17:14:22.143Z,9.4
2024-02-16T17:24:22.231Z,9.4
2024-02-16T17:34:22.234Z,9.4
2024-02-16T17:44:22.142Z,9.4
2024-02-16T17:54:22.154Z,9.4
2024-02-16T18:04:21.911Z,9.4
2024-02-16T18:14:22.068Z,9.4
2024-02-16T18:24:22.189Z,9.4
2024-02-16T18:34:21.908Z,9.4
2024-02-16T18:44:22.033Z,9.4
2024-02-16T18:54:21.832Z,9.4
2024-02-16T19:04:22.087Z,9.4
2024-02-16T19:14:22.000Z,9.4
2024-02-16T19:24:28.984Z,9.4
2024-02-16T19:34:22.044Z,9.4
2024-02-16T19:44:22.681Z,9.4
2024-02-16T19:54:22.057Z,9.3
2024-02-16T20:04:21.997Z,9.3
2024-02-16T20:24:21.974Z,9.3
2024-02-16T20:34:22.008Z,9.3
2024-02-16T20:44:21.874Z,9.3
2024-02-16T20:54:21.906Z,9.3
2024-02-16T21:04:21.949Z,9.2
2024-02-16T21:24:22.240Z,9.2
2024-02-16T21:34:21.946Z,9.2
2024-02-16T21:44:21.820Z,9.2
2024-02-16T21:54:21.874Z,9.1
2024-02-16T22:04:21.797Z,9.1
2024-02-16T22:14:21.731Z,9.1
2024-02-16T22:24:21.791Z,9.1
2024-02-16T22:34:21.862Z,9
2024-02-16T22:44:21.757Z,9
2024-02-16T22:54:23.234Z,9
2024-02-16T23:04:21.908Z,9
2024-02-16T23:14:21.558Z,8.9
2024-02-16T23:24:21.789Z,8.9
2024-02-16T23:34:21.775Z,8.9
2024-02-16T23:44:21.677Z,8.9
2024-02-16T23:54:21.695Z,8.9
